sensor_id;sensor_type;location;lat;lon;timestamp;pressure;altitude;pressure_sealevel;temperature;humidity
69257;BME280;56376;53.356;-1.748;2022-11-18T00:01:29;96716.13;;;7.83;100.00
69257;BME280;56376;53.356;-1.748;2022-11-18T00:03:55;96718.00;;;7.80;100.00
69257;BME280;56376;53.356;-1.748;2022-11-18T00:06:22;96717.25;;;7.78;100.00
69257;BME280;56376;53.356;-1.748;2022-11-18T00:08:48;96722.38;;;7.80;100.00
69257;BME280;56376;53.356;-1.748;2022-11-18T00:11:16;96721.41;;;7.81;100.00
69257;BME280;56376;53.356;-1.748;2022-11-18T00:14:02;96739.50;;;7.83;100.00
69257;BME280;56376;53.356;-1.748;2022-11-18T00:16:53;96730.75;;;7.84;100.00
69257;BME280;56376;53.356;-1.748;2022-11-18T00:19:20;96729.84;;;7.85;100.00
69257;BME280;56376;53.356;-1.748;2022-11-18T00:21:46;96745.53;;;7.83;100.00
69257;BME280;56376;53.356;-1.748;2022-11-18T00:24:11;96741.38;;;7.80;100.00
69257;BME280;56376;53.356;-1.748;2022-11-18T00:26:37;96745.84;;;7.78;100.00
69257;BME280;56376;53.356;-1.748;2022-11-18T00:29:02;96741.59;;;7.77;100.00
69257;BME280;56376;53.356;-1.748;2022-11-18T00:31:28;96745.22;;;7.88;100.00
69257;BME280;56376;53.356;-1.748;2022-11-18T00:33:53;96749.69;;;7.86;100.00
69257;BME280;56376;53.356;-1.748;2022-11-18T00:36:19;96750.13;;;7.79;100.00
69257;BME280;56376;53.356;-1.748;2022-11-18T00:38:44;96761.56;;;7.77;100.00
69257;BME280;56376;53.356;-1.748;2022-11-18T00:41:12;96754.28;;;7.82;100.00
69257;BME280;56376;53.356;-1.748;2022-11-18T00:43:38;96760.53;;;7.79;100.00
69257;BME280;56376;53.356;-1.748;2022-11-18T00:46:06;96761.25;;;7.82;100.00
69257;BME280;56376;53.356;-1.748;2022-11-18T00:48:32;96764.56;;;7.84;100.00
69257;BME280;56376;53.356;-1.748;2022-11-18T00:51:05;96767.50;;;7.79;100.00
69257;BME280;56376;53.356;-1.748;2022-11-18T00:53:30;96757.94;;;7.79;100.00
69257;BME280;56376;53.356;-1.748;2022-11-18T00:55:56;96772.47;;;7.82;100.00
69257;BME280;56376;53.356;-1.748;2022-11-18T00:58:21;96767.59;;;7.77;100.00
69257;BME280;56376;53.356;-1.748;2022-11-18T01:00:50;96765.94;;;7.76;100.00
69257;BME280;56376;53.356;-1.748;2022-11-18T01:03:16;96778.28;;;7.73;100.00
69257;BME280;56376;53.356;-1.748;2022-11-18T01:05:41;96777.75;;;7.80;100.00
69257;BME280;56376;53.356;-1.748;2022-11-18T01:08:09;96779.84;;;7.75;100.00
69257;BME280;56376;53.356;-1.748;2022-11-18T01:10:36;96780.38;;;7.80;100.00
69257;BME280;56376;53.356;-1.748;2022-11-18T01:13:02;96781.31;;;7.79;100.00
69257;BME280;56376;53.356;-1.748;2022-11-18T01:18:12;96780.59;;;7.77;100.00
69257;BME280;56376;53.356;-1.748;2022-11-18T01:20:38;96784.66;;;7.69;100.00
69257;BME280;56376;53.356;-1.748;2022-11-18T01:23:03;96788.28;;;7.66;100.00
69257;BME280;56376;53.356;-1.748;2022-11-18T01:25:29;96788.06;;;7.69;100.00
69257;BME280;56376;53.356;-1.748;2022-11-18T01:27:55;96807.31;;;7.67;100.00
69257;BME280;56376;53.356;-1.748;2022-11-18T01:30:21;96810.63;;;7.69;100.00
69257;BME280;56376;53.356;-1.748;2022-11-18T01:32:47;96805.63;;;7.66;100.00
69257;BME280;56376;53.356;-1.748;2022-11-18T01:35:13;96793.50;;;7.66;100.00
69257;BME280;56376;53.356;-1.748;2022-11-18T01:37:39;96801.06;;;7.69;100.00
69257;BME280;56376;53.356;-1.748;2022-11-18T01:40:06;96809.78;;;7.68;100.00
69257;BME280;56376;53.356;-1.748;2022-11-18T01:42:32;96807.31;;;7.67;100.00
69257;BME280;56376;53.356;-1.748;2022-11-18T01:48:11;96813.94;;;7.58;100.00
69257;BME280;56376;53.356;-1.748;2022-11-18T01:50:38;96823.50;;;7.57;100.00
69257;BME280;56376;53.356;-1.748;2022-11-18T01:53:10;96816.88;;;7.53;100.00
69257;BME280;56376;53.356;-1.748;2022-11-18T01:55:37;96816.97;;;7.52;100.00
69257;BME280;56376;53.356;-1.748;2022-11-18T01:58:17;96824.75;;;7.52;100.00
69257;BME280;56376;53.356;-1.748;2022-11-18T02:00:44;96814.16;;;7.55;100.00
69257;BME280;56376;53.356;-1.748;2022-11-18T02:03:10;96834.72;;;7.58;100.00
69257;BME280;56376;53.356;-1.748;2022-11-18T02:05:37;96839.41;;;7.66;100.00
69257;BME280;56376;53.356;-1.748;2022-11-18T02:08:04;96841.91;;;7.67;100.00
69257;BME280;56376;53.356;-1.748;2022-11-18T02:10:30;96849.69;;;7.67;100.00
69257;BME280;56376;53.356;-1.748;2022-11-18T02:12:56;96848.88;;;7.67;100.00
69257;BME280;56376;53.356;-1.748;2022-11-18T02:18:37;96851.78;;;7.75;100.00
69257;BME280;56376;53.356;-1.748;2022-11-18T02:29:14;96869.88;;;7.64;100.00
69257;BME280;56376;53.356;-1.748;2022-11-18T02:32:08;96875.78;;;7.66;100.00
69257;BME280;56376;53.356;-1.748;2022-11-18T02:34:51;96871.09;;;7.71;100.00
69257;BME280;56376;53.356;-1.748;2022-11-18T02:38:04;96890.03;;;7.73;100.00
69257;BME280;56376;53.356;-1.748;2022-11-18T02:40:30;96885.97;;;7.69;100.00
69257;BME280;56376;53.356;-1.748;2022-11-18T02:43:10;96891.88;;;7.71;100.00
69257;BME280;56376;53.356;-1.748;2022-11-18T02:45:40;96881.69;;;7.68;100.00
69257;BME280;56376;53.356;-1.748;2022-11-18T02:48:08;96877.53;;;7.65;100.00
69257;BME280;56376;53.356;-1.748;2022-11-18T02:50:36;96884.41;;;7.66;100.00
69257;BME280;56376;53.356;-1.748;2022-11-18T02:53:04;96899.16;;;7.66;100.00
69257;BME280;56376;53.356;-1.748;2022-11-18T02:55:33;96888.06;;;7.64;100.00
69257;BME280;56376;53.356;-1.748;2022-11-18T02:58:02;96888.16;;;7.62;100.00
69257;BME280;56376;53.356;-1.748;2022-11-18T03:00:27;96909.75;;;7.63;100.00
69257;BME280;56376;53.356;-1.748;2022-11-18T03:02:53;96900.94;;;7.65;100.00
69257;BME280;56376;53.356;-1.748;2022-11-18T03:05:25;96902.50;;;7.68;100.00
69257;BME280;56376;53.356;-1.748;2022-11-18T03:07:58;96901.75;;;7.66;100.00
69257;BME280;56376;53.356;-1.748;2022-11-18T03:10:26;96908.50;;;7.68;100.00
69257;BME280;56376;53.356;-1.748;2022-11-18T03:13:10;96912.16;;;7.66;100.00
69257;BME280;56376;53.356;-1.748;2022-11-18T03:15:59;96919.94;;;7.66;100.00
69257;BME280;56376;53.356;-1.748;2022-11-18T03:18:32;96919.09;;;7.65;100.00
69257;BME280;56376;53.356;-1.748;2022-11-18T03:21:07;96926.81;;;7.67;100.00
69257;BME280;56376;53.356;-1.748;2022-11-18T03:23:53;96931.72;;;7.71;100.00
69257;BME280;56376;53.356;-1.748;2022-11-18T03:26:25;96927.34;;;7.72;100.00
69257;BME280;56376;53.356;-1.748;2022-11-18T03:29:14;96935.66;;;7.77;100.00
69257;BME280;56376;53.356;-1.748;2022-11-18T03:31:48;96942.94;;;7.72;100.00
69257;BME280;56376;53.356;-1.748;2022-11-18T03:34:24;96937.75;;;7.72;100.00
69257;BME280;56376;53.356;-1.748;2022-11-18T03:36:56;96946.88;;;7.77;100.00
69257;BME280;56376;53.356;-1.748;2022-11-18T03:39:24;96950.72;;;7.72;100.00
69257;BME280;56376;53.356;-1.748;2022-11-18T03:42:07;96949.38;;;7.66;100.00
69257;BME280;56376;53.356;-1.748;2022-11-18T03:44:37;96944.19;;;7.66;100.00
69257;BME280;56376;53.356;-1.748;2022-11-18T03:47:11;96956.97;;;7.69;100.00
69257;BME280;56376;53.356;-1.748;2022-11-18T03:49:45;96960.38;;;7.70;100.00
69257;BME280;56376;53.356;-1.748;2022-11-18T03:52:20;96957.03;;;7.68;100.00
69257;BME280;56376;53.356;-1.748;2022-11-18T03:54:49;96953.72;;;7.66;100.00
69257;BME280;56376;53.356;-1.748;2022-11-18T03:57:33;96975.34;;;7.66;100.00
69257;BME280;56376;53.356;-1.748;2022-11-18T04:00:06;96965.59;;;7.70;100.00
69257;BME280;56376;53.356;-1.748;2022-11-18T04:02:33;96962.78;;;7.73;100.00
69257;BME280;56376;53.356;-1.748;2022-11-18T04:05:00;96975.03;;;7.71;100.00
69257;BME280;56376;53.356;-1.748;2022-11-18T04:08:22;96977.13;;;7.78;100.00
69257;BME280;56376;53.356;-1.748;2022-11-18T04:10:58;96982.53;;;7.75;100.00
69257;BME280;56376;53.356;-1.748;2022-11-18T04:13:29;96989.91;;;7.69;100.00
69257;BME280;56376;53.356;-1.748;2022-11-18T04:15:56;96989.78;;;7.70;100.00
69257;BME280;56376;53.356;-1.748;2022-11-18T04:18:22;96994.16;;;7.70;100.00
69257;BME280;56376;53.356;-1.748;2022-11-18T04:20:47;96993.34;;;7.69;100.00
69257;BME280;56376;53.356;-1.748;2022-11-18T04:23:12;97006.53;;;7.66;100.00
69257;BME280;56376;53.356;-1.748;2022-11-18T04:25:38;97001.97;;;7.70;100.00
69257;BME280;56376;53.356;-1.748;2022-11-18T04:28:04;97011.00;;;7.64;100.00
69257;BME280;56376;53.356;-1.748;2022-11-18T04:30:29;97019.00;;;7.61;100.00
69257;BME280;56376;53.356;-1.748;2022-11-18T04:32:55;97017.00;;;7.65;100.00
69257;BME280;56376;53.356;-1.748;2022-11-18T04:35:21;97025.34;;;7.70;100.00
69257;BME280;56376;53.356;-1.748;2022-11-18T04:37:46;97020.97;;;7.70;100.00
69257;BME280;56376;53.356;-1.748;2022-11-18T04:40:12;97032.19;;;7.71;100.00
69257;BME280;56376;53.356;-1.748;2022-11-18T04:42:37;97024.59;;;7.68;100.00
69257;BME280;56376;53.356;-1.748;2022-11-18T04:45:03;97028.16;;;7.67;100.00
69257;BME280;56376;53.356;-1.748;2022-11-18T04:47:28;97033.44;;;7.65;100.00
69257;BME280;56376;53.356;-1.748;2022-11-18T04:49:54;97034.38;;;7.64;100.00
69257;BME280;56376;53.356;-1.748;2022-11-18T04:52:19;97039.28;;;7.69;100.00
69257;BME280;56376;53.356;-1.748;2022-11-18T04:54:45;97029.06;;;7.66;100.00
69257;BME280;56376;53.356;-1.748;2022-11-18T04:57:11;97038.63;;;7.65;100.00
69257;BME280;56376;53.356;-1.748;2022-11-18T04:59:36;97042.78;;;7.68;100.00
69257;BME280;56376;53.356;-1.748;2022-11-18T05:02:01;97053.19;;;7.68;100.00
69257;BME280;56376;53.356;-1.748;2022-11-18T05:04:31;97054.50;;;7.61;100.00
69257;BME280;56376;53.356;-1.748;2022-11-18T05:06:57;97075.94;;;7.64;100.00
69257;BME280;56376;53.356;-1.748;2022-11-18T05:09:23;97068.88;;;7.66;100.00
69257;BME280;56376;53.356;-1.748;2022-11-18T05:11:49;97072.41;;;7.65;100.00
69257;BME280;56376;53.356;-1.748;2022-11-18T05:14:33;97078.06;;;7.72;100.00
69257;BME280;56376;53.356;-1.748;2022-11-18T05:17:00;97085.31;;;7.67;100.00
69257;BME280;56376;53.356;-1.748;2022-11-18T05:19:26;97080.47;;;7.61;100.00
69257;BME280;56376;53.356;-1.748;2022-11-18T05:21:51;97086.06;;;7.69;100.00
69257;BME280;56376;53.356;-1.748;2022-11-18T05:24:17;97088.66;;;7.69;100.00
69257;BME280;56376;53.356;-1.748;2022-11-18T05:26:42;97098.00;;;7.71;100.00
69257;BME280;56376;53.356;-1.748;2022-11-18T05:29:08;97100.78;;;7.68;100.00
69257;BME280;56376;53.356;-1.748;2022-11-18T05:31:33;97109.44;;;7.69;100.00
69257;BME280;56376;53.356;-1.748;2022-11-18T05:33:59;97100.59;;;7.71;100.00
69257;BME280;56376;53.356;-1.748;2022-11-18T05:36:25;97107.88;;;7.66;100.00
69257;BME280;56376;53.356;-1.748;2022-11-18T05:38:50;97113.88;;;7.67;100.00
69257;BME280;56376;53.356;-1.748;2022-11-18T05:41:16;97114.63;;;7.69;100.00
69257;BME280;56376;53.356;-1.748;2022-11-18T05:44:01;97124.47;;;7.64;100.00
69257;BME280;56376;53.356;-1.748;2022-11-18T05:46:27;97119.38;;;7.62;100.00
69257;BME280;56376;53.356;-1.748;2022-11-18T05:48:52;97114.72;;;7.67;100.00
69257;BME280;56376;53.356;-1.748;2022-11-18T05:51:18;97131.06;;;7.69;100.00
69257;BME280;56376;53.356;-1.748;2022-11-18T05:53:44;97121.56;;;7.68;100.00
69257;BME280;56376;53.356;-1.748;2022-11-18T05:56:32;97136.25;;;7.69;100.00
69257;BME280;56376;53.356;-1.748;2022-11-18T05:59:00;97139.75;;;7.68;100.00
69257;BME280;56376;53.356;-1.748;2022-11-18T06:04:37;97155.88;;;7.73;100.00
69257;BME280;56376;53.356;-1.748;2022-11-18T06:07:22;97154.72;;;7.65;100.00
69257;BME280;56376;53.356;-1.748;2022-11-18T06:09:52;97158.13;;;7.65;100.00
69257;BME280;56376;53.356;-1.748;2022-11-18T06:12:22;97163.34;;;7.65;100.00
69257;BME280;56376;53.356;-1.748;2022-11-18T06:14:59;97171.13;;;7.65;100.00
69257;BME280;56376;53.356;-1.748;2022-11-18T06:17:33;97169.38;;;7.66;100.00
69257;BME280;56376;53.356;-1.748;2022-11-18T06:20:01;97173.72;;;7.65;100.00
69257;BME280;56376;53.356;-1.748;2022-11-18T06:22:27;97167.50;;;7.68;100.00
69257;BME280;56376;53.356;-1.748;2022-11-18T06:24:52;97187.56;;;7.66;100.00
69257;BME280;56376;53.356;-1.748;2022-11-18T06:27:18;97181.53;;;7.65;100.00
69257;BME280;56376;53.356;-1.748;2022-11-18T06:29:43;97187.56;;;7.66;100.00
69257;BME280;56376;53.356;-1.748;2022-11-18T06:32:09;97190.34;;;7.63;100.00
69257;BME280;56376;53.356;-1.748;2022-11-18T06:34:35;97193.50;;;7.68;100.00
69257;BME280;56376;53.356;-1.748;2022-11-18T06:37:13;97198.34;;;7.59;100.00
69257;BME280;56376;53.356;-1.748;2022-11-18T06:39:39;97216.72;;;7.56;100.00
69257;BME280;56376;53.356;-1.748;2022-11-18T06:42:05;97207.34;;;7.54;100.00
69257;BME280;56376;53.356;-1.748;2022-11-18T06:44:30;97223.69;;;7.56;100.00
69257;BME280;56376;53.356;-1.748;2022-11-18T06:46:55;97227.09;;;7.56;100.00
69257;BME280;56376;53.356;-1.748;2022-11-18T06:49:22;97242.22;;;7.50;100.00
69257;BME280;56376;53.356;-1.748;2022-11-18T06:51:48;97240.63;;;7.47;100.00
69257;BME280;56376;53.356;-1.748;2022-11-18T06:54:14;97248.25;;;7.50;100.00
69257;BME280;56376;53.356;-1.748;2022-11-18T06:56:39;97250.75;;;7.52;100.00
69257;BME280;56376;53.356;-1.748;2022-11-18T06:59:04;97262.06;;;7.51;100.00
69257;BME280;56376;53.356;-1.748;2022-11-18T07:01:33;97263.75;;;7.52;100.00
69257;BME280;56376;53.356;-1.748;2022-11-18T07:04:00;97270.72;;;7.51;100.00
69257;BME280;56376;53.356;-1.748;2022-11-18T07:06:27;97290.63;;;7.51;100.00
69257;BME280;56376;53.356;-1.748;2022-11-18T07:08:53;97285.16;;;7.55;100.00
69257;BME280;56376;53.356;-1.748;2022-11-18T07:11:22;97285.44;;;7.51;100.00
69257;BME280;56376;53.356;-1.748;2022-11-18T07:13:48;97297.59;;;7.50;100.00
69257;BME280;56376;53.356;-1.748;2022-11-18T07:16:16;97285.56;;;7.49;100.00
69257;BME280;56376;53.356;-1.748;2022-11-18T07:18:43;97298.88;;;7.43;100.00
69257;BME280;56376;53.356;-1.748;2022-11-18T07:21:14;97300.66;;;7.43;100.00
69257;BME280;56376;53.356;-1.748;2022-11-18T07:23:41;97294.63;;;7.42;100.00
69257;BME280;56376;53.356;-1.748;2022-11-18T07:26:07;97314.19;;;7.48;100.00
69257;BME280;56376;53.356;-1.748;2022-11-18T07:28:33;97304.63;;;7.48;100.00
69257;BME280;56376;53.356;-1.748;2022-11-18T07:31:02;97307.34;;;7.47;100.00
69257;BME280;56376;53.356;-1.748;2022-11-18T07:33:29;97322.75;;;7.50;100.00
69257;BME280;56376;53.356;-1.748;2022-11-18T07:35:54;97311.59;;;7.48;100.00
69257;BME280;56376;53.356;-1.748;2022-11-18T07:38:20;97312.44;;;7.48;100.00
69257;BME280;56376;53.356;-1.748;2022-11-18T07:40:45;97323.84;;;7.46;100.00
69257;BME280;56376;53.356;-1.748;2022-11-18T07:43:10;97330.91;;;7.44;100.00
69257;BME280;56376;53.356;-1.748;2022-11-18T07:45:36;97334.41;;;7.43;100.00
69257;BME280;56376;53.356;-1.748;2022-11-18T07:48:01;97328.38;;;7.42;100.00
69257;BME280;56376;53.356;-1.748;2022-11-18T07:50:27;97358.53;;;7.45;100.00
69257;BME280;56376;53.356;-1.748;2022-11-18T07:52:56;97352.53;;;7.44;100.00
69257;BME280;56376;53.356;-1.748;2022-11-18T07:55:21;97347.78;;;7.36;100.00
69257;BME280;56376;53.356;-1.748;2022-11-18T07:57:47;97359.75;;;7.39;100.00
69257;BME280;56376;53.356;-1.748;2022-11-18T08:00:13;97366.03;;;7.35;100.00
69257;BME280;56376;53.356;-1.748;2022-11-18T08:02:38;97367.44;;;7.41;100.00
69257;BME280;56376;53.356;-1.748;2022-11-18T08:05:04;97371.97;;;7.37;100.00
69257;BME280;56376;53.356;-1.748;2022-11-18T08:07:29;97377.81;;;7.41;100.00
69257;BME280;56376;53.356;-1.748;2022-11-18T08:09:55;97376.91;;;7.42;100.00
69257;BME280;56376;53.356;-1.748;2022-11-18T08:12:20;97378.94;;;7.36;100.00
69257;BME280;56376;53.356;-1.748;2022-11-18T08:14:45;97390.81;;;7.41;100.00
69257;BME280;56376;53.356;-1.748;2022-11-18T08:17:11;97389.91;;;7.42;100.00
69257;BME280;56376;53.356;-1.748;2022-11-18T08:19:36;97384.13;;;7.36;100.00
69257;BME280;56376;53.356;-1.748;2022-11-18T08:22:01;97401.31;;;7.39;100.00
69257;BME280;56376;53.356;-1.748;2022-11-18T08:24:27;97401.38;;;7.37;100.00
69257;BME280;56376;53.356;-1.748;2022-11-18T08:26:52;97410.84;;;7.39;100.00
69257;BME280;56376;53.356;-1.748;2022-11-18T08:29:18;97414.59;;;7.49;100.00
69257;BME280;56376;53.356;-1.748;2022-11-18T08:31:43;97416.53;;;7.45;100.00
69257;BME280;56376;53.356;-1.748;2022-11-18T08:34:09;97419.22;;;7.44;100.00
69257;BME280;56376;53.356;-1.748;2022-11-18T08:36:36;97428.50;;;7.48;100.00
69257;BME280;56376;53.356;-1.748;2022-11-18T08:39:04;97439.66;;;7.50;100.00
69257;BME280;56376;53.356;-1.748;2022-11-18T08:41:33;97436.09;;;7.51;100.00
69257;BME280;56376;53.356;-1.748;2022-11-18T08:44:03;97454.22;;;7.52;100.00
69257;BME280;56376;53.356;-1.748;2022-11-18T08:46:28;97449.09;;;7.51;100.00
69257;BME280;56376;53.356;-1.748;2022-11-18T08:48:54;97456.88;;;7.51;100.00
69257;BME280;56376;53.356;-1.748;2022-11-18T09:02:27;97488.41;;;7.91;100.00
69257;BME280;56376;53.356;-1.748;2022-11-18T09:04:52;97486.16;;;7.85;100.00
69257;BME280;56376;53.356;-1.748;2022-11-18T09:07:19;97486.78;;;7.74;100.00
69257;BME280;56376;53.356;-1.748;2022-11-18T09:09:45;97488.00;;;7.83;100.00
69257;BME280;56376;53.356;-1.748;2022-11-18T09:12:11;97488.25;;;7.78;100.00
69257;BME280;56376;53.356;-1.748;2022-11-18T09:14:41;97500.44;;;7.77;100.00
69257;BME280;56376;53.356;-1.748;2022-11-18T09:17:07;97500.63;;;7.74;100.00
69257;BME280;56376;53.356;-1.748;2022-11-18T09:19:32;97491.22;;;7.72;100.00
69257;BME280;56376;53.356;-1.748;2022-11-18T09:21:58;97512.66;;;7.75;100.00
69257;BME280;56376;53.356;-1.748;2022-11-18T09:24:23;97517.53;;;7.82;100.00
69257;BME280;56376;53.356;-1.748;2022-11-18T09:26:48;97516.28;;;7.73;100.00
69257;BME280;56376;53.356;-1.748;2022-11-18T09:29:14;97511.19;;;7.71;100.00
69257;BME280;56376;53.356;-1.748;2022-11-18T09:31:39;97525.91;;;7.71;100.00
69257;BME280;56376;53.356;-1.748;2022-11-18T09:34:05;97526.59;;;7.74;100.00
69257;BME280;56376;53.356;-1.748;2022-11-18T09:36:30;97545.38;;;7.79;100.00
69257;BME280;56376;53.356;-1.748;2022-11-18T09:38:58;97552.22;;;7.80;100.00
69257;BME280;56376;53.356;-1.748;2022-11-18T09:41:43;97556.09;;;7.73;100.00
69257;BME280;56376;53.356;-1.748;2022-11-18T09:49:44;97577.31;;;7.82;100.00
69257;BME280;56376;53.356;-1.748;2022-11-18T09:52:17;97590.31;;;7.82;100.00
69257;BME280;56376;53.356;-1.748;2022-11-18T09:54:44;97589.94;;;7.88;100.00
69257;BME280;56376;53.356;-1.748;2022-11-18T09:57:20;97601.09;;;7.90;100.00
69257;BME280;56376;53.356;-1.748;2022-11-18T09:59:47;97600.16;;;7.91;100.00
69257;BME280;56376;53.356;-1.748;2022-11-18T10:04:38;97606.97;;;7.93;100.00
69257;BME280;56376;53.356;-1.748;2022-11-18T10:07:14;97620.66;;;7.97;100.00
69257;BME280;56376;53.356;-1.748;2022-11-18T10:09:40;97617.09;;;7.98;100.00
69257;BME280;56376;53.356;-1.748;2022-11-18T10:12:30;97625.84;;;7.97;100.00
69257;BME280;56376;53.356;-1.748;2022-11-18T10:15:20;97644.69;;;8.00;100.00
69257;BME280;56376;53.356;-1.748;2022-11-18T10:23:25;97649.97;;;8.15;100.00
69257;BME280;56376;53.356;-1.748;2022-11-18T10:25:53;97655.81;;;8.18;100.00
69257;BME280;56376;53.356;-1.748;2022-11-18T10:28:24;97665.22;;;8.21;100.00
69257;BME280;56376;53.356;-1.748;2022-11-18T10:30:51;97673.88;;;8.21;100.00
69257;BME280;56376;53.356;-1.748;2022-11-18T10:33:26;97673.69;;;8.24;100.00
69257;BME280;56376;53.356;-1.748;2022-11-18T10:38:32;97681.16;;;8.31;100.00
69257;BME280;56376;53.356;-1.748;2022-11-18T10:41:00;97690.06;;;8.27;100.00
69257;BME280;56376;53.356;-1.748;2022-11-18T10:43:52;97685.53;;;8.30;100.00
69257;BME280;56376;53.356;-1.748;2022-11-18T10:48:43;97692.75;;;8.41;100.00
69257;BME280;56376;53.356;-1.748;2022-11-18T10:51:21;97697.63;;;8.47;100.00
69257;BME280;56376;53.356;-1.748;2022-11-18T10:53:47;97700.47;;;8.42;100.00
69257;BME280;56376;53.356;-1.748;2022-11-18T10:56:13;97708.84;;;8.48;100.00
69257;BME280;56376;53.356;-1.748;2022-11-18T10:58:44;97709.75;;;8.47;100.00
69257;BME280;56376;53.356;-1.748;2022-11-18T11:01:25;97711.34;;;8.49;100.00
69257;BME280;56376;53.356;-1.748;2022-11-18T11:08:53;97725.66;;;8.42;100.00
69257;BME280;56376;53.356;-1.748;2022-11-18T11:11:25;97733.56;;;8.39;100.00
69257;BME280;56376;53.356;-1.748;2022-11-18T11:14:18;97730.31;;;8.35;100.00
69257;BME280;56376;53.356;-1.748;2022-11-18T11:19:21;97731.97;;;8.36;100.00
69257;BME280;56376;53.356;-1.748;2022-11-18T11:21:47;97742.75;;;8.30;100.00
69257;BME280;56376;53.356;-1.748;2022-11-18T11:24:13;97749.63;;;8.31;100.00
69257;BME280;56376;53.356;-1.748;2022-11-18T11:29:31;97762.53;;;8.33;100.00
69257;BME280;56376;53.356;-1.748;2022-11-18T11:32:14;97770.78;;;8.41;100.00
69257;BME280;56376;53.356;-1.748;2022-11-18T11:45:20;97786.09;;;8.47;100.00
69257;BME280;56376;53.356;-1.748;2022-11-18T11:48:04;97790.75;;;8.56;100.00
69257;BME280;56376;53.356;-1.748;2022-11-18T11:50:45;97793.53;;;8.53;100.00
69257;BME280;56376;53.356;-1.748;2022-11-18T11:53:43;97790.34;;;8.48;100.00
69257;BME280;56376;53.356;-1.748;2022-11-18T11:56:29;97796.56;;;8.45;100.00
69257;BME280;56376;53.356;-1.748;2022-11-18T12:01:58;97805.38;;;8.43;100.00
69257;BME280;56376;53.356;-1.748;2022-11-18T12:04:54;97795.81;;;8.43;100.00
69257;BME280;56376;53.356;-1.748;2022-11-18T12:07:24;97805.13;;;8.48;100.00
69257;BME280;56376;53.356;-1.748;2022-11-18T12:12:31;97818.22;;;8.46;100.00
69257;BME280;56376;53.356;-1.748;2022-11-18T12:20:49;97834.16;;;8.40;100.00
69257;BME280;56376;53.356;-1.748;2022-11-18T12:23:21;97823.53;;;8.44;100.00
69257;BME280;56376;53.356;-1.748;2022-11-18T12:28:40;97827.13;;;8.42;100.00
69257;BME280;56376;53.356;-1.748;2022-11-18T12:33:56;97845.16;;;8.45;100.00
69257;BME280;56376;53.356;-1.748;2022-11-18T12:36:36;97843.78;;;8.38;100.00
69257;BME280;56376;53.356;-1.748;2022-11-18T12:41:58;97846.63;;;8.33;100.00
69257;BME280;56376;53.356;-1.748;2022-11-18T12:44:45;97840.59;;;8.33;100.00
69257;BME280;56376;53.356;-1.748;2022-11-18T12:47:12;97849.81;;;8.38;100.00
69257;BME280;56376;53.356;-1.748;2022-11-18T12:54:54;97869.75;;;8.39;100.00
69257;BME280;56376;53.356;-1.748;2022-11-18T12:57:26;97866.50;;;8.52;100.00
69257;BME280;56376;53.356;-1.748;2022-11-18T12:59:52;97864.97;;;8.48;100.00
69257;BME280;56376;53.356;-1.748;2022-11-18T13:02:26;97857.16;;;8.48;100.00
69257;BME280;56376;53.356;-1.748;2022-11-18T13:05:18;97863.13;;;8.50;100.00
69257;BME280;56376;53.356;-1.748;2022-11-18T13:07:55;97873.44;;;8.51;100.00
69257;BME280;56376;53.356;-1.748;2022-11-18T13:13:28;97884.97;;;8.47;100.00
69257;BME280;56376;53.356;-1.748;2022-11-18T13:15:58;97879.28;;;8.39;100.00
69257;BME280;56376;53.356;-1.748;2022-11-18T13:18:52;97890.31;;;8.44;100.00
69257;BME280;56376;53.356;-1.748;2022-11-18T13:21:26;97896.19;;;8.48;100.00
69257;BME280;56376;53.356;-1.748;2022-11-18T13:24:12;97898.81;;;8.48;100.00
69257;BME280;56376;53.356;-1.748;2022-11-18T13:26:41;97892.59;;;8.50;100.00
69257;BME280;56376;53.356;-1.748;2022-11-18T13:29:27;97905.25;;;8.56;100.00
69257;BME280;56376;53.356;-1.748;2022-11-18T13:32:19;97900.66;;;8.61;100.00
69257;BME280;56376;53.356;-1.748;2022-11-18T13:34:47;97906.53;;;8.65;100.00
69257;BME280;56376;53.356;-1.748;2022-11-18T13:37:22;97901.09;;;8.70;100.00
69257;BME280;56376;53.356;-1.748;2022-11-18T13:39:48;97910.81;;;8.66;100.00
69257;BME280;56376;53.356;-1.748;2022-11-18T13:42:24;97913.25;;;8.69;100.00
69257;BME280;56376;53.356;-1.748;2022-11-18T13:44:53;97924.34;;;8.73;100.00
69257;BME280;56376;53.356;-1.748;2022-11-18T13:49:59;97925.78;;;8.78;100.00
69257;BME280;56376;53.356;-1.748;2022-11-18T13:54:58;97924.59;;;8.84;100.00
69257;BME280;56376;53.356;-1.748;2022-11-18T13:57:25;97927.13;;;8.85;100.00
69257;BME280;56376;53.356;-1.748;2022-11-18T13:59:53;97932.97;;;8.89;100.00
69257;BME280;56376;53.356;-1.748;2022-11-18T14:02:19;97938.06;;;8.92;100.00
69257;BME280;56376;53.356;-1.748;2022-11-18T14:04:49;97938.97;;;8.91;100.00
69257;BME280;56376;53.356;-1.748;2022-11-18T14:07:26;97954.34;;;8.96;100.00
69257;BME280;56376;53.356;-1.748;2022-11-18T14:09:54;97954.34;;;8.96;100.00
69257;BME280;56376;53.356;-1.748;2022-11-18T14:12:25;97960.63;;;8.92;100.00
69257;BME280;56376;53.356;-1.748;2022-11-18T14:15:52;97963.50;;;8.87;100.00
69257;BME280;56376;53.356;-1.748;2022-11-18T14:18:00;97965.47;;;8.82;100.00
69257;BME280;56376;53.356;-1.748;2022-11-18T14:20:28;97974.81;;;8.70;100.00
69257;BME280;56376;53.356;-1.748;2022-11-18T14:23:01;97978.19;;;8.72;100.00
69257;BME280;56376;53.356;-1.748;2022-11-18T14:25:32;97985.13;;;8.72;100.00
69257;BME280;56376;53.356;-1.748;2022-11-18T14:36:32;97993.28;;;8.65;100.00
69257;BME280;56376;53.356;-1.748;2022-11-18T14:38:58;98007.81;;;8.70;100.00
69257;BME280;56376;53.356;-1.748;2022-11-18T14:41:23;98013.50;;;8.60;100.00
69257;BME280;56376;53.356;-1.748;2022-11-18T14:44:23;98011.13;;;8.56;100.00
69257;BME280;56376;53.356;-1.748;2022-11-18T14:46:51;98011.22;;;8.54;100.00
69257;BME280;56376;53.356;-1.748;2022-11-18T14:49:19;98019.09;;;8.53;100.00
69257;BME280;56376;53.356;-1.748;2022-11-18T14:51:49;98026.84;;;8.54;100.00
69257;BME280;56376;53.356;-1.748;2022-11-18T14:54:17;98037.31;;;8.53;100.00
69257;BME280;56376;53.356;-1.748;2022-11-18T14:56:43;98041.59;;;8.54;100.00
69257;BME280;56376;53.356;-1.748;2022-11-18T14:59:12;98047.91;;;8.50;100.00